ALK110 VRMM-VCBI
Flight info
| Callsign | ALK110 |
|---|---|
| Flight time | 1h 15m |
| Altitude | 35000 |
| Route | HOKEY1A HOKEY M512 TELIG LALUM2A |
| Aircraft | A21N/M-SDE3FGHIRWY/LB1 |
Departure
| Time | 2026-04-28 16:04 |
|---|---|
| Airport | Velana International Airport (VRMM) |
Arrival
| Time | 2026-04-28 17:19 |
|---|---|
| Airport | Bandaranaike International Colombo Airport (VCBI) |
| Time | Latitude | Longitude | Altitude | Speed | Heading |
|---|---|---|---|---|---|
| 2026-04-28 15:58 | 4.18134 | 73.52760 | 12 ft | 0 kts | 268° |
| 2026-04-28 15:59 | 4.18134 | 73.52756 | 12 ft | 2 kts | 268° |
| 2026-04-28 15:59 | 4.18133 | 73.52736 | 12 ft | 3 kts | 268° |
| 2026-04-28 15:59 | 4.18134 | 73.52783 | 13 ft | 3 kts | 268° |
| 2026-04-28 16:00 | 4.18135 | 73.52810 | 14 ft | 3 kts | 268° |
| 2026-04-28 16:00 | 4.18133 | 73.52834 | 14 ft | 3 kts | 294° |
| 2026-04-28 16:00 | 4.18115 | 73.52848 | 14 ft | 3 kts | 345° |
| 2026-04-28 16:00 | 4.18105 | 73.52850 | 14 ft | 0 kts | 4° |
| 2026-04-28 16:01 | 4.18131 | 73.52853 | 14 ft | 11 kts | 14° |
| 2026-04-28 16:01 | 4.18145 | 73.52943 | 13 ft | 13 kts | 39° |
| 2026-04-28 16:02 | 4.18199 | 73.52986 | 13 ft | 9 kts | 60° |
| 2026-04-28 16:02 | 4.18218 | 73.53043 | 15 ft | 9 kts | 75° |
| 2026-04-28 16:02 | 4.18256 | 73.53096 | 14 ft | 10 kts | 17° |
| 2026-04-28 16:02 | 4.18330 | 73.53101 | 14 ft | 10 kts | 2° |
| 2026-04-28 16:03 | 4.18552 | 73.53107 | 15 ft | 65 kts | 1° |
| 2026-04-28 16:03 | 4.19229 | 73.53099 | 13 ft | 128 kts | 0° |
| 2026-04-28 16:03 | 4.20307 | 73.53097 | 15 ft | 179 kts | 359° |
| 2026-04-28 16:03 | 4.21647 | 73.53088 | 316 ft | 198 kts | 360° |
| 2026-04-28 16:04 | 4.22984 | 73.53085 | 1133 ft | 190 kts | 359° |
| 2026-04-28 16:04 | 4.24325 | 73.53082 | 1602 ft | 202 kts | 359° |
| 2026-04-28 16:04 | 4.25781 | 73.53078 | 1990 ft | 219 kts | 359° |
| 2026-04-28 16:04 | 4.27346 | 73.53075 | 2566 ft | 227 kts | 359° |
| 2026-04-28 16:05 | 4.28864 | 73.53072 | 3251 ft | 229 kts | 359° |
| 2026-04-28 16:05 | 4.30481 | 73.53069 | 3894 ft | 235 kts | 358° |
| 2026-04-28 16:05 | 4.32118 | 73.53091 | 4592 ft | 239 kts | 5° |
| 2026-04-28 16:05 | 4.33659 | 73.53714 | 5189 ft | 251 kts | 39° |
| 2026-04-28 16:06 | 4.34650 | 73.55203 | 5543 ft | 274 kts | 69° |
| 2026-04-28 16:06 | 4.35180 | 73.57091 | 6056 ft | 287 kts | 73° |
| 2026-04-28 16:06 | 4.35679 | 73.59054 | 6733 ft | 292 kts | 73° |
| 2026-04-28 16:06 | 4.36202 | 73.61025 | 7417 ft | 297 kts | 72° |
| 2026-04-28 16:07 | 4.36761 | 73.63021 | 8085 ft | 302 kts | 72° |
| 2026-04-28 16:07 | 4.37354 | 73.65065 | 8744 ft | 307 kts | 71° |
| 2026-04-28 16:07 | 4.38593 | 73.69218 | 10018 ft | 317 kts | 71° |
| 2026-04-28 16:08 | 4.39246 | 73.71374 | 10444 ft | 330 kts | 72° |
| 2026-04-28 16:08 | 4.39925 | 73.73611 | 10738 ft | 347 kts | 72° |
| 2026-04-28 16:08 | 4.40649 | 73.75995 | 11030 ft | 363 kts | 72° |
| 2026-04-28 16:09 | 4.42196 | 73.81065 | 11599 ft | 396 kts | 72° |
| 2026-04-28 16:09 | 4.43002 | 73.83708 | 12057 ft | 405 kts | 73° |
| 2026-04-28 16:09 | 4.43837 | 73.86441 | 12716 ft | 409 kts | 73° |
| 2026-04-28 16:10 | 4.45507 | 73.91911 | 14028 ft | 414 kts | 74° |
| 2026-04-28 16:10 | 4.46345 | 73.94662 | 14662 ft | 417 kts | 74° |
| 2026-04-28 16:10 | 4.48041 | 74.00238 | 15929 ft | 423 kts | 75° |
| 2026-04-28 16:11 | 4.49760 | 74.05894 | 17186 ft | 427 kts | 76° |
| 2026-04-28 16:11 | 4.51497 | 74.11611 | 18407 ft | 431 kts | 76° |
| 2026-04-28 16:12 | 4.53223 | 74.17297 | 19574 ft | 433 kts | 76° |
| 2026-04-28 16:12 | 4.54097 | 74.20176 | 20145 ft | 435 kts | 76° |
| 2026-04-28 16:13 | 4.55862 | 74.25992 | 21252 ft | 437 kts | 77° |
| 2026-04-28 16:13 | 4.56743 | 74.28897 | 21783 ft | 438 kts | 77° |
| 2026-04-28 16:13 | 4.58514 | 74.34733 | 22802 ft | 440 kts | 77° |
| 2026-04-28 16:14 | 4.60300 | 74.40623 | 23758 ft | 442 kts | 77° |
| 2026-04-28 16:14 | 4.62089 | 74.46523 | 24650 ft | 444 kts | 77° |
| 2026-04-28 16:15 | 4.63890 | 74.52465 | 25475 ft | 446 kts | 77° |
| 2026-04-28 16:15 | 4.64782 | 74.55409 | 25856 ft | 447 kts | 76° |
| 2026-04-28 16:15 | 4.65690 | 74.58403 | 26224 ft | 448 kts | 76° |
| 2026-04-28 16:16 | 4.67495 | 74.64361 | 26979 ft | 448 kts | 76° |
| 2026-04-28 16:16 | 4.68404 | 74.67359 | 27494 ft | 445 kts | 76° |
| 2026-04-28 16:17 | 4.70179 | 74.73216 | 28502 ft | 438 kts | 76° |
| 2026-04-28 16:17 | 4.71063 | 74.76136 | 28952 ft | 435 kts | 76° |
| 2026-04-28 16:17 | 4.71936 | 74.79023 | 29386 ft | 433 kts | 76° |
| 2026-04-28 16:17 | 4.72808 | 74.81905 | 29811 ft | 431 kts | 75° |
| 2026-04-28 16:18 | 4.73675 | 74.84771 | 30218 ft | 429 kts | 75° |
| 2026-04-28 16:18 | 4.74528 | 74.87588 | 30605 ft | 427 kts | 75° |
| 2026-04-28 16:18 | 4.75393 | 74.90450 | 30980 ft | 425 kts | 75° |
| 2026-04-28 16:18 | 4.76237 | 74.93247 | 31306 ft | 425 kts | 75° |
| 2026-04-28 16:19 | 4.77088 | 74.96098 | 31432 ft | 429 kts | 72° |
| 2026-04-28 16:19 | 4.77948 | 74.98965 | 31536 ft | 433 kts | 72° |
| 2026-04-28 16:19 | 4.79703 | 75.04726 | 31753 ft | 441 kts | 72° |
| 2026-04-28 16:20 | 4.80603 | 75.07686 | 31933 ft | 442 kts | 72° |
| 2026-04-28 16:20 | 4.81503 | 75.10649 | 32136 ft | 444 kts | 72° |
| 2026-04-28 16:20 | 4.82390 | 75.13577 | 32328 ft | 445 kts | 72° |
| 2026-04-28 16:20 | 4.83293 | 75.16560 | 32542 ft | 446 kts | 72° |
| 2026-04-28 16:21 | 4.84194 | 75.19544 | 32792 ft | 445 kts | 72° |
| 2026-04-28 16:21 | 4.85083 | 75.22485 | 33048 ft | 444 kts | 72° |
| 2026-04-28 16:21 | 4.85981 | 75.25458 | 33303 ft | 443 kts | 72° |
| 2026-04-28 16:21 | 4.86873 | 75.28413 | 33544 ft | 443 kts | 72° |
| 2026-04-28 16:22 | 4.87763 | 75.31359 | 33781 ft | 442 kts | 73° |
| 2026-04-28 16:22 | 4.88649 | 75.34296 | 34001 ft | 441 kts | 73° |
| 2026-04-28 16:22 | 4.89532 | 75.37221 | 34208 ft | 441 kts | 73° |
| 2026-04-28 16:22 | 4.90419 | 75.40164 | 34405 ft | 441 kts | 73° |
| 2026-04-28 16:23 | 4.91306 | 75.43107 | 34605 ft | 440 kts | 73° |
| 2026-04-28 16:23 | 4.92193 | 75.46049 | 34795 ft | 440 kts | 73° |
| 2026-04-28 16:23 | 4.93970 | 75.51942 | 34866 ft | 446 kts | 73° |
| 2026-04-28 16:24 | 4.95766 | 75.57900 | 34869 ft | 450 kts | 73° |
| 2026-04-28 16:24 | 4.97583 | 75.63927 | 34870 ft | 450 kts | 73° |
| 2026-04-28 16:25 | 4.99388 | 75.69916 | 34871 ft | 452 kts | 73° |
| 2026-04-28 16:25 | 5.01210 | 75.75964 | 34870 ft | 452 kts | 73° |
| 2026-04-28 16:26 | 5.03025 | 75.81992 | 34870 ft | 450 kts | 73° |
| 2026-04-28 16:26 | 5.04828 | 75.87981 | 34870 ft | 449 kts | 73° |
| 2026-04-28 16:27 | 5.06618 | 75.93931 | 34870 ft | 447 kts | 73° |
| 2026-04-28 16:28 | 5.09305 | 76.02866 | 34870 ft | 445 kts | 74° |
| 2026-04-28 16:28 | 5.11082 | 76.08778 | 34869 ft | 443 kts | 74° |
| 2026-04-28 16:29 | 5.13735 | 76.17615 | 34869 ft | 442 kts | 75° |
| 2026-04-28 16:30 | 5.16392 | 76.26472 | 34869 ft | 442 kts | 75° |
| 2026-04-28 16:30 | 5.18154 | 76.32346 | 34869 ft | 442 kts | 75° |
| 2026-04-28 16:31 | 5.19933 | 76.38276 | 34869 ft | 442 kts | 75° |
| 2026-04-28 16:31 | 5.21692 | 76.44141 | 34869 ft | 442 kts | 75° |
| 2026-04-28 16:32 | 5.23469 | 76.50072 | 34869 ft | 442 kts | 75° |
| 2026-04-28 16:32 | 5.26111 | 76.58889 | 34869 ft | 442 kts | 75° |
| 2026-04-28 16:33 | 5.27590 | 76.63825 | 34868 ft | 442 kts | 75° |
| 2026-04-28 16:33 | 5.29642 | 76.70679 | 34862 ft | 442 kts | 75° |
| 2026-04-28 16:34 | 5.31405 | 76.76574 | 34855 ft | 442 kts | 75° |
| 2026-04-28 16:34 | 5.33184 | 76.82522 | 34849 ft | 442 kts | 75° |
| 2026-04-28 16:35 | 5.34945 | 76.88413 | 34844 ft | 443 kts | 74° |
| 2026-04-28 16:35 | 5.36716 | 76.94340 | 34842 ft | 444 kts | 74° |
| 2026-04-28 16:36 | 5.38481 | 77.00246 | 34842 ft | 445 kts | 74° |
| 2026-04-28 16:36 | 5.40261 | 77.06205 | 34842 ft | 445 kts | 74° |
| 2026-04-28 16:37 | 5.42038 | 77.12153 | 34842 ft | 445 kts | 74° |
| 2026-04-28 16:38 | 5.44708 | 77.21096 | 34842 ft | 445 kts | 74° |
| 2026-04-28 16:38 | 5.46477 | 77.27029 | 34842 ft | 445 kts | 74° |
| 2026-04-28 16:39 | 5.48249 | 77.32974 | 34842 ft | 445 kts | 74° |
| 2026-04-28 16:39 | 5.50016 | 77.38902 | 34843 ft | 445 kts | 74° |
| 2026-04-28 16:40 | 5.51792 | 77.44865 | 34842 ft | 445 kts | 74° |
| 2026-04-28 16:40 | 5.53566 | 77.50823 | 34842 ft | 445 kts | 74° |
| 2026-04-28 16:41 | 5.55335 | 77.56763 | 34842 ft | 445 kts | 74° |
| 2026-04-28 16:41 | 5.57103 | 77.62708 | 34842 ft | 445 kts | 74° |
| 2026-04-28 16:42 | 5.58876 | 77.68671 | 34843 ft | 445 kts | 74° |
| 2026-04-28 16:42 | 5.60652 | 77.74647 | 34843 ft | 445 kts | 74° |
| 2026-04-28 16:43 | 5.62406 | 77.80554 | 34842 ft | 445 kts | 74° |
| 2026-04-28 16:43 | 5.64176 | 77.86520 | 34842 ft | 445 kts | 74° |
| 2026-04-28 16:44 | 5.66006 | 77.92429 | 34842 ft | 446 kts | 71° |
| 2026-04-28 16:44 | 5.68424 | 77.98199 | 34842 ft | 447 kts | 65° |
| 2026-04-28 16:45 | 5.71476 | 78.03631 | 34842 ft | 448 kts | 59° |
| 2026-04-28 16:45 | 5.75140 | 78.08703 | 34842 ft | 450 kts | 53° |
| 2026-04-28 16:46 | 5.79026 | 78.13605 | 34843 ft | 450 kts | 53° |
| 2026-04-28 16:46 | 5.82877 | 78.18461 | 34840 ft | 440 kts | 53° |
| 2026-04-28 16:47 | 5.86672 | 78.23241 | 34842 ft | 438 kts | 53° |
| 2026-04-28 16:47 | 5.90453 | 78.28001 | 34842 ft | 438 kts | 53° |
| 2026-04-28 16:48 | 5.94256 | 78.32790 | 34842 ft | 438 kts | 53° |
| 2026-04-28 16:48 | 5.98102 | 78.37524 | 34842 ft | 439 kts | 52° |
| 2026-04-28 16:49 | 6.02001 | 78.42226 | 34565 ft | 434 kts | 52° |
| 2026-04-28 16:49 | 6.03900 | 78.44522 | 33938 ft | 435 kts | 52° |
| 2026-04-28 16:49 | 6.05841 | 78.46873 | 33064 ft | 440 kts | 52° |
| 2026-04-28 16:49 | 6.07803 | 78.49254 | 32125 ft | 446 kts | 53° |
| 2026-04-28 16:50 | 6.09782 | 78.51657 | 31183 ft | 451 kts | 53° |
| 2026-04-28 16:50 | 6.11759 | 78.54060 | 30240 ft | 457 kts | 53° |
| 2026-04-28 16:50 | 6.13779 | 78.56518 | 29268 ft | 462 kts | 53° |
| 2026-04-28 16:50 | 6.15844 | 78.59030 | 28256 ft | 467 kts | 53° |
| 2026-04-28 16:51 | 6.17896 | 78.61528 | 27263 ft | 472 kts | 53° |
| 2026-04-28 16:51 | 6.20006 | 78.64098 | 26252 ft | 478 kts | 53° |
| 2026-04-28 16:51 | 6.22135 | 78.66691 | 25225 ft | 484 kts | 53° |
| 2026-04-28 16:51 | 6.24270 | 78.69291 | 24180 ft | 489 kts | 52° |
| 2026-04-28 16:52 | 6.26445 | 78.71941 | 23290 ft | 493 kts | 52° |
| 2026-04-28 16:52 | 6.28613 | 78.74582 | 22518 ft | 497 kts | 52° |
| 2026-04-28 16:52 | 6.30807 | 78.77253 | 21725 ft | 495 kts | 52° |
| 2026-04-28 16:52 | 6.32980 | 78.79892 | 20949 ft | 491 kts | 51° |
| 2026-04-28 16:53 | 6.35162 | 78.82542 | 20226 ft | 486 kts | 51° |
| 2026-04-28 16:53 | 6.37295 | 78.85131 | 19643 ft | 478 kts | 51° |
| 2026-04-28 16:53 | 6.39394 | 78.87682 | 18868 ft | 475 kts | 51° |
| 2026-04-28 16:53 | 6.41495 | 78.90241 | 18085 ft | 472 kts | 51° |
| 2026-04-28 16:54 | 6.43563 | 78.92760 | 17311 ft | 469 kts | 51° |
| 2026-04-28 16:54 | 6.45612 | 78.95258 | 16670 ft | 463 kts | 50° |
| 2026-04-28 16:54 | 6.47632 | 78.97721 | 16046 ft | 457 kts | 50° |
| 2026-04-28 16:54 | 6.48988 | 78.99376 | 15521 ft | 455 kts | 50° |
| 2026-04-28 16:55 | 6.51638 | 79.02620 | 14550 ft | 450 kts | 49° |
| 2026-04-28 16:55 | 6.53617 | 79.05044 | 13963 ft | 442 kts | 49° |
| 2026-04-28 16:55 | 6.55536 | 79.07384 | 13310 ft | 437 kts | 49° |
| 2026-04-28 16:55 | 6.57459 | 79.09727 | 12956 ft | 424 kts | 49° |
| 2026-04-28 16:56 | 6.59284 | 79.11953 | 12645 ft | 412 kts | 49° |
| 2026-04-28 16:56 | 6.61106 | 79.14178 | 12261 ft | 407 kts | 49° |
| 2026-04-28 16:56 | 6.62894 | 79.16359 | 11777 ft | 405 kts | 49° |
| 2026-04-28 16:56 | 6.64658 | 79.18510 | 11375 ft | 397 kts | 49° |
| 2026-04-28 16:57 | 6.66400 | 79.20637 | 11129 ft | 384 kts | 49° |
| 2026-04-28 16:57 | 6.68064 | 79.22672 | 10931 ft | 372 kts | 49° |
| 2026-04-28 16:57 | 6.69684 | 79.24651 | 10729 ft | 360 kts | 49° |
| 2026-04-28 16:57 | 6.71254 | 79.26569 | 10541 ft | 349 kts | 49° |
| 2026-04-28 16:58 | 6.72770 | 79.28414 | 10366 ft | 338 kts | 49° |
| 2026-04-28 16:58 | 6.74231 | 79.30195 | 10207 ft | 326 kts | 49° |
| 2026-04-28 16:58 | 6.75643 | 79.31918 | 10063 ft | 315 kts | 49° |
| 2026-04-28 16:58 | 6.77022 | 79.33604 | 9927 ft | 304 kts | 49° |
| 2026-04-28 16:59 | 6.78360 | 79.35239 | 9583 ft | 302 kts | 49° |
| 2026-04-28 16:59 | 6.79690 | 79.36864 | 9214 ft | 301 kts | 50° |
| 2026-04-28 16:59 | 6.81006 | 79.38472 | 8865 ft | 299 kts | 50° |
| 2026-04-28 16:59 | 6.82330 | 79.40091 | 8518 ft | 297 kts | 50° |
| 2026-04-28 17:00 | 6.83629 | 79.41680 | 8181 ft | 295 kts | 50° |
| 2026-04-28 17:00 | 6.84920 | 79.43261 | 7891 ft | 290 kts | 50° |
| 2026-04-28 17:00 | 6.86190 | 79.44816 | 7656 ft | 284 kts | 51° |
| 2026-04-28 17:00 | 6.87431 | 79.46336 | 7367 ft | 279 kts | 51° |
| 2026-04-28 17:01 | 6.88660 | 79.47842 | 7081 ft | 275 kts | 51° |
| 2026-04-28 17:01 | 6.89855 | 79.49306 | 6802 ft | 271 kts | 51° |
| 2026-04-28 17:01 | 6.91044 | 79.50763 | 6524 ft | 266 kts | 51° |
| 2026-04-28 17:01 | 6.92213 | 79.52196 | 6249 ft | 262 kts | 51° |
| 2026-04-28 17:02 | 6.93355 | 79.53595 | 5979 ft | 258 kts | 51° |
| 2026-04-28 17:02 | 6.94108 | 79.54517 | 5801 ft | 255 kts | 51° |
| 2026-04-28 17:02 | 6.95601 | 79.56360 | 5433 ft | 251 kts | 52° |
| 2026-04-28 17:02 | 6.96685 | 79.57704 | 5159 ft | 248 kts | 50° |
| 2026-04-28 17:03 | 6.99309 | 79.59916 | 4611 ft | 247 kts | 34° |
| 2026-04-28 17:03 | 7.00729 | 79.60874 | 4496 ft | 245 kts | 34° |
| 2026-04-28 17:03 | 7.02157 | 79.61824 | 4492 ft | 245 kts | 34° |
| 2026-04-28 17:04 | 7.04960 | 79.63765 | 4489 ft | 245 kts | 36° |
| 2026-04-28 17:04 | 7.06366 | 79.64768 | 4489 ft | 245 kts | 36° |
| 2026-04-28 17:05 | 7.09147 | 79.66756 | 4489 ft | 245 kts | 36° |
| 2026-04-28 17:05 | 7.10553 | 79.67708 | 4486 ft | 245 kts | 30° |
| 2026-04-28 17:05 | 7.12074 | 79.68483 | 4488 ft | 245 kts | 25° |
| 2026-04-28 17:06 | 7.15173 | 79.69928 | 4488 ft | 245 kts | 25° |
| 2026-04-28 17:06 | 7.16709 | 79.70660 | 4488 ft | 245 kts | 26° |
| 2026-04-28 17:06 | 7.19788 | 79.72166 | 4488 ft | 245 kts | 26° |
| 2026-04-28 17:07 | 7.21310 | 79.72918 | 4488 ft | 245 kts | 26° |
| 2026-04-28 17:07 | 7.22844 | 79.73678 | 4488 ft | 245 kts | 26° |
| 2026-04-28 17:07 | 7.24377 | 79.74438 | 4488 ft | 245 kts | 26° |
| 2026-04-28 17:07 | 7.25903 | 79.75194 | 4488 ft | 245 kts | 26° |
| 2026-04-28 17:08 | 7.27433 | 79.75953 | 4488 ft | 245 kts | 26° |
| 2026-04-28 17:08 | 7.28960 | 79.76710 | 4488 ft | 245 kts | 26° |
| 2026-04-28 17:08 | 7.30498 | 79.77473 | 4488 ft | 245 kts | 26° |
| 2026-04-28 17:08 | 7.32020 | 79.78228 | 4488 ft | 245 kts | 26° |
| 2026-04-28 17:09 | 7.33573 | 79.78998 | 4488 ft | 245 kts | 26° |
| 2026-04-28 17:09 | 7.35104 | 79.79757 | 4489 ft | 245 kts | 26° |
| 2026-04-28 17:09 | 7.36631 | 79.80514 | 4489 ft | 246 kts | 26° |
| 2026-04-28 17:09 | 7.38178 | 79.81281 | 4488 ft | 245 kts | 26° |
| 2026-04-28 17:10 | 7.39635 | 79.82107 | 4250 ft | 243 kts | 40° |
| 2026-04-28 17:10 | 7.40706 | 79.83415 | 3909 ft | 241 kts | 66° |
| 2026-04-28 17:10 | 7.41125 | 79.85028 | 3599 ft | 238 kts | 90° |
| 2026-04-28 17:10 | 7.40928 | 79.86670 | 3286 ft | 237 kts | 103° |
| 2026-04-28 17:11 | 7.40561 | 79.88282 | 2963 ft | 236 kts | 104° |
| 2026-04-28 17:11 | 7.40178 | 79.89899 | 2641 ft | 235 kts | 104° |
| 2026-04-28 17:11 | 7.39817 | 79.91464 | 2519 ft | 225 kts | 104° |
| 2026-04-28 17:11 | 7.39479 | 79.92968 | 2596 ft | 209 kts | 103° |
| 2026-04-28 17:12 | 7.39177 | 79.94335 | 2572 ft | 189 kts | 103° |
| 2026-04-28 17:12 | 7.38905 | 79.95565 | 2524 ft | 170 kts | 103° |
| 2026-04-28 17:12 | 7.38657 | 79.96693 | 2505 ft | 163 kts | 103° |
| 2026-04-28 17:12 | 7.38412 | 79.97805 | 2511 ft | 163 kts | 103° |
| 2026-04-28 17:13 | 7.38170 | 79.98907 | 2518 ft | 158 kts | 103° |
| 2026-04-28 17:13 | 7.37935 | 79.99982 | 2509 ft | 155 kts | 103° |
| 2026-04-28 17:13 | 7.37626 | 80.01024 | 2502 ft | 153 kts | 122° |
| 2026-04-28 17:13 | 7.36848 | 80.01723 | 2508 ft | 154 kts | 158° |
| 2026-04-28 17:14 | 7.35796 | 80.01823 | 2512 ft | 154 kts | 193° |
| 2026-04-28 17:14 | 7.34849 | 80.01326 | 2523 ft | 155 kts | 215° |
| 2026-04-28 17:14 | 7.34002 | 80.00669 | 2518 ft | 154 kts | 217° |
| 2026-04-28 17:14 | 7.33154 | 79.99989 | 2516 ft | 154 kts | 217° |
| 2026-04-28 17:15 | 7.32321 | 79.99315 | 2516 ft | 154 kts | 218° |
| 2026-04-28 17:15 | 7.31491 | 79.98644 | 2510 ft | 152 kts | 217° |
| 2026-04-28 17:15 | 7.30674 | 79.97995 | 2298 ft | 148 kts | 217° |
| 2026-04-28 17:15 | 7.29862 | 79.97363 | 1853 ft | 148 kts | 216° |
| 2026-04-28 17:16 | 7.29041 | 79.96733 | 1703 ft | 150 kts | 216° |
| 2026-04-28 17:16 | 7.28204 | 79.96092 | 1638 ft | 151 kts | 216° |
| 2026-04-28 17:16 | 7.27364 | 79.95451 | 1611 ft | 151 kts | 216° |
| 2026-04-28 17:16 | 7.26520 | 79.94807 | 1607 ft | 152 kts | 216° |
| 2026-04-28 17:17 | 7.25678 | 79.94164 | 1584 ft | 152 kts | 216° |
| 2026-04-28 17:17 | 7.24833 | 79.93517 | 1391 ft | 151 kts | 216° |
| 2026-04-28 17:17 | 7.24007 | 79.92885 | 1199 ft | 151 kts | 216° |
| 2026-04-28 17:17 | 7.23166 | 79.92241 | 1003 ft | 150 kts | 216° |
| 2026-04-28 17:18 | 7.22339 | 79.91608 | 805 ft | 150 kts | 216° |
| 2026-04-28 17:18 | 7.21511 | 79.90974 | 604 ft | 149 kts | 216° |
| 2026-04-28 17:18 | 7.20683 | 79.90340 | 402 ft | 149 kts | 216° |
| 2026-04-28 17:18 | 7.19864 | 79.89713 | 202 ft | 148 kts | 217° |
| 2026-04-28 17:19 | 7.19046 | 79.89080 | 49 ft | 147 kts | 217° |
| 2026-04-28 17:19 | 7.18322 | 79.88536 | 42 ft | 103 kts | 218° |
| 2026-04-28 17:19 | 7.17895 | 79.88213 | 40 ft | 64 kts | 219° |
| 2026-04-28 17:19 | 7.17584 | 79.87970 | 38 ft | 38 kts | 217° |
| 2026-04-28 17:20 | 7.17475 | 79.87981 | 39 ft | 14 kts | 126° |
| 2026-04-28 17:20 | 7.17451 | 79.88013 | 39 ft | 0 kts | 130° |
| 2026-04-28 17:21 | 7.17446 | 79.88019 | 39 ft | 2 kts | 129° |
| 2026-04-28 17:21 | 7.17432 | 79.88045 | 40 ft | 5 kts | 102° |
| 2026-04-28 17:22 | 7.17505 | 79.88137 | 41 ft | 10 kts | 38° |
| 2026-04-28 17:22 | 7.17566 | 79.88185 | 42 ft | 11 kts | 37° |
| 2026-04-28 17:22 | 7.17633 | 79.88236 | 43 ft | 11 kts | 37° |
| 2026-04-28 17:23 | 7.17767 | 79.88338 | 43 ft | 12 kts | 37° |
| 2026-04-28 17:23 | 7.17838 | 79.88393 | 43 ft | 12 kts | 47° |
| 2026-04-28 17:23 | 7.17836 | 79.88470 | 44 ft | 11 kts | 121° |
| 2026-04-28 17:23 | 7.17793 | 79.88528 | 46 ft | 9 kts | 128° |
| 2026-04-28 17:24 | 7.17770 | 79.88575 | 48 ft | 6 kts | 56° |
| 2026-04-28 17:24 | 7.17797 | 79.88605 | 49 ft | 4 kts | 42° |
| 2026-04-28 17:24 | 7.17816 | 79.88621 | 49 ft | 0 kts | 38° |